sensor_id;sensor_type;location;lat;lon;timestamp;temperature;humidity
3940;DHT22;1984;48.312;9.244;2023-04-01T00:01:13;6.70;99.90
3940;DHT22;1984;48.312;9.244;2023-04-01T00:03:40;6.70;99.90
3940;DHT22;1984;48.312;9.244;2023-04-01T00:06:06;6.70;99.90
3940;DHT22;1984;48.312;9.244;2023-04-01T00:08:32;6.70;99.90
3940;DHT22;1984;48.312;9.244;2023-04-01T00:10:57;6.70;99.90
3940;DHT22;1984;48.312;9.244;2023-04-01T00:13:24;6.70;99.90
3940;DHT22;1984;48.312;9.244;2023-04-01T00:15:51;6.60;99.90
3940;DHT22;1984;48.312;9.244;2023-04-01T00:18:17;6.70;99.90
3940;DHT22;1984;48.312;9.244;2023-04-01T00:20:48;6.70;99.90
3940;DHT22;1984;48.312;9.244;2023-04-01T00:23:14;6.70;99.90
3940;DHT22;1984;48.312;9.244;2023-04-01T00:25:40;6.70;99.90
3940;DHT22;1984;48.312;9.244;2023-04-01T00:28:06;6.80;99.90
3940;DHT22;1984;48.312;9.244;2023-04-01T00:30:31;6.80;99.90
3940;DHT22;1984;48.312;9.244;2023-04-01T00:32:57;6.80;99.90
3940;DHT22;1984;48.312;9.244;2023-04-01T00:35:22;6.80;99.90
3940;DHT22;1984;48.312;9.244;2023-04-01T00:37:48;6.80;99.90
3940;DHT22;1984;48.312;9.244;2023-04-01T00:40:35;6.80;99.90
3940;DHT22;1984;48.312;9.244;2023-04-01T00:43:02;6.80;99.90
3940;DHT22;1984;48.312;9.244;2023-04-01T00:45:36;6.80;99.90
3940;DHT22;1984;48.312;9.244;2023-04-01T00:48:10;6.80;99.90
3940;DHT22;1984;48.312;9.244;2023-04-01T00:50:37;6.80;99.90
3940;DHT22;1984;48.312;9.244;2023-04-01T00:53:05;6.80;99.90
3940;DHT22;1984;48.312;9.244;2023-04-01T00:55:34;6.80;99.90
3940;DHT22;1984;48.312;9.244;2023-04-01T00:58:03;6.80;99.90
3940;DHT22;1984;48.312;9.244;2023-04-01T01:00:30;6.80;99.90
3940;DHT22;1984;48.312;9.244;2023-04-01T01:02:56;6.80;99.90
3940;DHT22;1984;48.312;9.244;2023-04-01T01:05:30;6.80;99.90
3940;DHT22;1984;48.312;9.244;2023-04-01T01:08:15;6.70;99.90
3940;DHT22;1984;48.312;9.244;2023-04-01T01:10:46;6.80;99.90
3940;DHT22;1984;48.312;9.244;2023-04-01T01:13:20;6.70;99.90
3940;DHT22;1984;48.312;9.244;2023-04-01T01:16:10;6.70;99.90
3940;DHT22;1984;48.312;9.244;2023-04-01T01:22:11;6.70;99.90
3940;DHT22;1984;48.312;9.244;2023-04-01T01:33:49;6.60;99.90
3940;DHT22;1984;48.312;9.244;2023-04-01T01:36:19;6.50;99.90
3940;DHT22;1984;48.312;9.244;2023-04-01T01:38:48;6.60;99.90
3940;DHT22;1984;48.312;9.244;2023-04-01T01:41:16;6.60;99.90
3940;DHT22;1984;48.312;9.244;2023-04-01T01:43:44;6.50;99.90
3940;DHT22;1984;48.312;9.244;2023-04-01T01:46:18;6.50;99.90
3940;DHT22;1984;48.312;9.244;2023-04-01T01:48:45;6.50;99.90
3940;DHT22;1984;48.312;9.244;2023-04-01T01:51:12;6.50;99.90
3940;DHT22;1984;48.312;9.244;2023-04-01T01:53:38;6.50;99.90
3940;DHT22;1984;48.312;9.244;2023-04-01T01:56:04;6.50;99.90
3940;DHT22;1984;48.312;9.244;2023-04-01T01:58:36;6.50;99.90
3940;DHT22;1984;48.312;9.244;2023-04-01T02:01:09;6.50;99.90
3940;DHT22;1984;48.312;9.244;2023-04-01T02:03:37;6.50;99.90
3940;DHT22;1984;48.312;9.244;2023-04-01T02:06:07;6.40;99.90
3940;DHT22;1984;48.312;9.244;2023-04-01T02:08:43;6.40;99.90
3940;DHT22;1984;48.312;9.244;2023-04-01T02:11:12;6.40;99.90
3940;DHT22;1984;48.312;9.244;2023-04-01T02:19:18;6.30;99.90
3940;DHT22;1984;48.312;9.244;2023-04-01T02:21:50;6.20;99.90
3940;DHT22;1984;48.312;9.244;2023-04-01T02:24:19;6.20;99.90
3940;DHT22;1984;48.312;9.244;2023-04-01T02:26:48;6.20;99.90
3940;DHT22;1984;48.312;9.244;2023-04-01T02:29:18;6.20;99.90
3940;DHT22;1984;48.312;9.244;2023-04-01T02:31:44;6.20;99.90
3940;DHT22;1984;48.312;9.244;2023-04-01T02:34:11;6.20;99.90
3940;DHT22;1984;48.312;9.244;2023-04-01T02:36:37;6.20;99.90
3940;DHT22;1984;48.312;9.244;2023-04-01T02:39:05;6.20;99.90
3940;DHT22;1984;48.312;9.244;2023-04-01T02:41:30;6.20;99.90
3940;DHT22;1984;48.312;9.244;2023-04-01T02:43:56;6.10;99.90
3940;DHT22;1984;48.312;9.244;2023-04-01T02:46:24;6.10;99.90
3940;DHT22;1984;48.312;9.244;2023-04-01T02:48:50;6.10;99.90
3940;DHT22;1984;48.312;9.244;2023-04-01T02:51:15;6.10;99.90
3940;DHT22;1984;48.312;9.244;2023-04-01T02:53:41;6.00;99.90
3940;DHT22;1984;48.312;9.244;2023-04-01T02:56:07;5.90;99.90
3940;DHT22;1984;48.312;9.244;2023-04-01T02:58:32;5.90;99.90
3940;DHT22;1984;48.312;9.244;2023-04-01T03:00:58;5.90;99.90
3940;DHT22;1984;48.312;9.244;2023-04-01T03:03:23;5.80;99.90
3940;DHT22;1984;48.312;9.244;2023-04-01T03:05:49;5.80;99.90
3940;DHT22;1984;48.312;9.244;2023-04-01T03:08:14;5.80;99.90
3940;DHT22;1984;48.312;9.244;2023-04-01T03:10:40;5.80;99.90
3940;DHT22;1984;48.312;9.244;2023-04-01T03:13:06;5.80;99.90
3940;DHT22;1984;48.312;9.244;2023-04-01T03:15:31;5.80;99.90
3940;DHT22;1984;48.312;9.244;2023-04-01T03:17:57;5.90;99.90
3940;DHT22;1984;48.312;9.244;2023-04-01T03:20:22;5.80;99.90
3940;DHT22;1984;48.312;9.244;2023-04-01T03:22:48;5.90;99.90
3940;DHT22;1984;48.312;9.244;2023-04-01T03:25:13;5.90;99.90
3940;DHT22;1984;48.312;9.244;2023-04-01T03:27:39;5.90;99.90
3940;DHT22;1984;48.312;9.244;2023-04-01T03:30:06;5.90;99.90
3940;DHT22;1984;48.312;9.244;2023-04-01T03:32:32;6.00;99.90
3940;DHT22;1984;48.312;9.244;2023-04-01T03:34:57;6.00;99.90
3940;DHT22;1984;48.312;9.244;2023-04-01T03:37:24;6.00;99.90
3940;DHT22;1984;48.312;9.244;2023-04-01T03:39:50;6.00;99.90
3940;DHT22;1984;48.312;9.244;2023-04-01T03:42:16;6.10;99.90
3940;DHT22;1984;48.312;9.244;2023-04-01T03:44:42;6.10;99.90
3940;DHT22;1984;48.312;9.244;2023-04-01T03:47:07;6.10;99.90
3940;DHT22;1984;48.312;9.244;2023-04-01T03:49:34;6.10;99.90
3940;DHT22;1984;48.312;9.244;2023-04-01T03:52:00;6.10;99.90
3940;DHT22;1984;48.312;9.244;2023-04-01T03:54:25;6.00;99.90
3940;DHT22;1984;48.312;9.244;2023-04-01T03:56:51;6.00;99.90
3940;DHT22;1984;48.312;9.244;2023-04-01T03:59:16;6.00;99.90
3940;DHT22;1984;48.312;9.244;2023-04-01T04:01:42;6.00;99.90
3940;DHT22;1984;48.312;9.244;2023-04-01T04:04:07;6.00;99.90
3940;DHT22;1984;48.312;9.244;2023-04-01T04:06:35;6.00;99.90
3940;DHT22;1984;48.312;9.244;2023-04-01T04:09:01;6.00;99.90
3940;DHT22;1984;48.312;9.244;2023-04-01T04:11:27;6.00;99.90
3940;DHT22;1984;48.312;9.244;2023-04-01T04:13:52;5.90;99.90
3940;DHT22;1984;48.312;9.244;2023-04-01T04:16:18;5.90;99.90
3940;DHT22;1984;48.312;9.244;2023-04-01T04:18:43;5.90;99.90
3940;DHT22;1984;48.312;9.244;2023-04-01T04:21:13;5.90;99.90
3940;DHT22;1984;48.312;9.244;2023-04-01T04:23:39;5.90;99.90
3940;DHT22;1984;48.312;9.244;2023-04-01T04:26:07;5.90;99.90
3940;DHT22;1984;48.312;9.244;2023-04-01T04:28:33;5.90;99.90
3940;DHT22;1984;48.312;9.244;2023-04-01T04:30:59;5.90;99.90
3940;DHT22;1984;48.312;9.244;2023-04-01T04:33:25;5.90;99.90
3940;DHT22;1984;48.312;9.244;2023-04-01T04:35:51;5.90;99.90
3940;DHT22;1984;48.312;9.244;2023-04-01T04:38:20;5.90;99.90
3940;DHT22;1984;48.312;9.244;2023-04-01T04:40:45;6.00;99.90
3940;DHT22;1984;48.312;9.244;2023-04-01T04:43:12;6.00;99.90
3940;DHT22;1984;48.312;9.244;2023-04-01T04:45:38;6.00;99.90
3940;DHT22;1984;48.312;9.244;2023-04-01T04:48:03;5.90;99.90
3940;DHT22;1984;48.312;9.244;2023-04-01T04:50:29;5.90;99.90
3940;DHT22;1984;48.312;9.244;2023-04-01T04:52:54;5.90;99.90
3940;DHT22;1984;48.312;9.244;2023-04-01T04:55:20;5.90;99.90
3940;DHT22;1984;48.312;9.244;2023-04-01T04:57:46;5.80;99.90
3940;DHT22;1984;48.312;9.244;2023-04-01T05:00:12;5.80;99.90
3940;DHT22;1984;48.312;9.244;2023-04-01T05:02:37;5.80;99.90
3940;DHT22;1984;48.312;9.244;2023-04-01T05:05:03;5.80;99.90
3940;DHT22;1984;48.312;9.244;2023-04-01T05:07:29;5.80;99.90
3940;DHT22;1984;48.312;9.244;2023-04-01T05:09:55;5.80;99.90
3940;DHT22;1984;48.312;9.244;2023-04-01T05:12:20;5.80;99.90
3940;DHT22;1984;48.312;9.244;2023-04-01T05:14:46;5.80;99.90
3940;DHT22;1984;48.312;9.244;2023-04-01T05:17:12;5.80;99.90
3940;DHT22;1984;48.312;9.244;2023-04-01T05:19:38;5.90;99.90
3940;DHT22;1984;48.312;9.244;2023-04-01T05:22:05;6.00;99.90
3940;DHT22;1984;48.312;9.244;2023-04-01T05:24:31;6.10;99.90
3940;DHT22;1984;48.312;9.244;2023-04-01T05:26:58;6.10;99.90
3940;DHT22;1984;48.312;9.244;2023-04-01T05:29:25;6.10;99.90
3940;DHT22;1984;48.312;9.244;2023-04-01T05:31:50;6.00;99.90
3940;DHT22;1984;48.312;9.244;2023-04-01T05:34:16;6.00;99.90
3940;DHT22;1984;48.312;9.244;2023-04-01T05:36:42;6.00;99.90
3940;DHT22;1984;48.312;9.244;2023-04-01T05:39:08;6.10;99.90
3940;DHT22;1984;48.312;9.244;2023-04-01T05:41:37;6.10;99.90
3940;DHT22;1984;48.312;9.244;2023-04-01T05:44:04;6.10;99.90
3940;DHT22;1984;48.312;9.244;2023-04-01T05:46:30;6.10;99.90
3940;DHT22;1984;48.312;9.244;2023-04-01T05:48:56;6.20;99.90
3940;DHT22;1984;48.312;9.244;2023-04-01T05:51:21;6.30;99.90
3940;DHT22;1984;48.312;9.244;2023-04-01T05:53:47;6.40;99.90
3940;DHT22;1984;48.312;9.244;2023-04-01T05:56:12;6.40;99.90
3940;DHT22;1984;48.312;9.244;2023-04-01T05:58:38;6.50;99.90
3940;DHT22;1984;48.312;9.244;2023-04-01T06:01:05;6.60;99.90
3940;DHT22;1984;48.312;9.244;2023-04-01T06:03:32;6.60;99.90
3940;DHT22;1984;48.312;9.244;2023-04-01T06:05:57;6.60;99.90
3940;DHT22;1984;48.312;9.244;2023-04-01T06:08:24;6.70;99.90
3940;DHT22;1984;48.312;9.244;2023-04-01T06:27:04;7.30;99.90
3940;DHT22;1984;48.312;9.244;2023-04-01T06:34:57;7.30;99.90
3940;DHT22;1984;48.312;9.244;2023-04-01T06:49:19;7.30;99.90
3940;DHT22;1984;48.312;9.244;2023-04-01T06:52:05;7.30;99.90
3940;DHT22;1984;48.312;9.244;2023-04-01T06:54:38;7.30;99.90
3940;DHT22;1984;48.312;9.244;2023-04-01T06:57:32;7.30;99.90
3940;DHT22;1984;48.312;9.244;2023-04-01T07:00:02;7.30;99.90
3940;DHT22;1984;48.312;9.244;2023-04-01T07:02:33;7.30;99.90
3940;DHT22;1984;48.312;9.244;2023-04-01T07:05:01;7.30;99.90
3940;DHT22;1984;48.312;9.244;2023-04-01T07:10:15;7.30;99.90
3940;DHT22;1984;48.312;9.244;2023-04-01T07:12:51;7.20;99.90
3940;DHT22;1984;48.312;9.244;2023-04-01T07:15:36;7.30;99.90
3940;DHT22;1984;48.312;9.244;2023-04-01T07:18:14;7.30;99.90
3940;DHT22;1984;48.312;9.244;2023-04-01T07:20:41;7.30;99.90
3940;DHT22;1984;48.312;9.244;2023-04-01T07:23:24;7.30;99.90
3940;DHT22;1984;48.312;9.244;2023-04-01T07:26:00;7.50;99.90
3940;DHT22;1984;48.312;9.244;2023-04-01T07:28:31;7.50;99.90
3940;DHT22;1984;48.312;9.244;2023-04-01T07:31:22;7.50;99.90
3940;DHT22;1984;48.312;9.244;2023-04-01T07:34:11;7.60;99.90
3940;DHT22;1984;48.312;9.244;2023-04-01T07:39:39;7.70;99.90
3940;DHT22;1984;48.312;9.244;2023-04-01T07:45:30;7.80;99.90
3940;DHT22;1984;48.312;9.244;2023-04-01T07:50:58;7.90;99.90
3940;DHT22;1984;48.312;9.244;2023-04-01T07:53:42;7.90;99.90
3940;DHT22;1984;48.312;9.244;2023-04-01T07:56:14;8.10;99.90
3940;DHT22;1984;48.312;9.244;2023-04-01T08:06:49;8.10;99.90
3940;DHT22;1984;48.312;9.244;2023-04-01T08:09:46;7.90;99.90
3940;DHT22;1984;48.312;9.244;2023-04-01T08:15:19;7.80;99.90
3940;DHT22;1984;48.312;9.244;2023-04-01T08:21:01;7.80;99.90
3940;DHT22;1984;48.312;9.244;2023-04-01T08:23:33;7.70;99.90
3940;DHT22;1984;48.312;9.244;2023-04-01T08:26:20;7.70;99.90
3940;DHT22;1984;48.312;9.244;2023-04-01T08:31:33;7.50;99.90
3940;DHT22;1984;48.312;9.244;2023-04-01T08:34:05;7.50;99.90
3940;DHT22;1984;48.312;9.244;2023-04-01T08:36:39;7.50;99.90
3940;DHT22;1984;48.312;9.244;2023-04-01T08:39:15;7.50;99.90
3940;DHT22;1984;48.312;9.244;2023-04-01T08:44:23;7.50;99.90
3940;DHT22;1984;48.312;9.244;2023-04-01T08:52:52;7.50;99.90
3940;DHT22;1984;48.312;9.244;2023-04-01T08:58:05;7.50;99.90
3940;DHT22;1984;48.312;9.244;2023-04-01T09:00:43;7.50;99.90
3940;DHT22;1984;48.312;9.244;2023-04-01T09:09:00;7.50;99.90
3940;DHT22;1984;48.312;9.244;2023-04-01T09:20:17;7.50;99.90
3940;DHT22;1984;48.312;9.244;2023-04-01T09:27:57;7.80;99.90
3940;DHT22;1984;48.312;9.244;2023-04-01T09:31:01;7.90;99.90
3940;DHT22;1984;48.312;9.244;2023-04-01T09:39:38;8.40;99.90
3940;DHT22;1984;48.312;9.244;2023-04-01T09:50:32;8.40;99.90
3940;DHT22;1984;48.312;9.244;2023-04-01T10:01:19;8.00;99.90
3940;DHT22;1984;48.312;9.244;2023-04-01T10:18:19;8.10;99.90
3940;DHT22;1984;48.312;9.244;2023-04-01T10:29:39;7.80;99.90
3940;DHT22;1984;48.312;9.244;2023-04-01T10:43:57;7.60;99.90
3940;DHT22;1984;48.312;9.244;2023-04-01T10:55:29;7.60;99.90
3940;DHT22;1984;48.312;9.244;2023-04-01T11:12:29;8.00;99.90
3940;DHT22;1984;48.312;9.244;2023-04-01T11:15:11;8.00;99.90
3940;DHT22;1984;48.312;9.244;2023-04-01T11:32:14;7.90;99.90
3940;DHT22;1984;48.312;9.244;2023-04-01T11:35:19;8.00;99.90
3940;DHT22;1984;48.312;9.244;2023-04-01T11:38:03;7.90;99.90
3940;DHT22;1984;48.312;9.244;2023-04-01T11:46:23;7.90;99.90
3940;DHT22;1984;48.312;9.244;2023-04-01T11:49:00;7.80;99.90
3940;DHT22;1984;48.312;9.244;2023-04-01T11:58:23;7.80;99.90
3940;DHT22;1984;48.312;9.244;2023-04-01T12:03:54;7.70;99.90
3940;DHT22;1984;48.312;9.244;2023-04-01T12:06:45;7.70;99.90
3940;DHT22;1984;48.312;9.244;2023-04-01T12:15:13;7.80;99.90
3940;DHT22;1984;48.312;9.244;2023-04-01T12:18:05;7.90;99.90
3940;DHT22;1984;48.312;9.244;2023-04-01T12:23:09;8.00;99.90
3940;DHT22;1984;48.312;9.244;2023-04-01T12:37:05;8.30;99.90
3940;DHT22;1984;48.312;9.244;2023-04-01T12:55:41;8.30;99.90
3940;DHT22;1984;48.312;9.244;2023-04-01T13:19:38;8.50;99.90
3940;DHT22;1984;48.312;9.244;2023-04-01T13:27:18;8.80;99.90
3940;DHT22;1984;48.312;9.244;2023-04-01T13:32:54;8.90;99.90
3940;DHT22;1984;48.312;9.244;2023-04-01T13:41:05;9.20;99.90
3940;DHT22;1984;48.312;9.244;2023-04-01T13:43:39;9.20;99.90
3940;DHT22;1984;48.312;9.244;2023-04-01T13:46:29;9.20;99.90
3940;DHT22;1984;48.312;9.244;2023-04-01T13:49:39;9.10;99.90
3940;DHT22;1984;48.312;9.244;2023-04-01T13:52:08;9.20;99.90
3940;DHT22;1984;48.312;9.244;2023-04-01T13:54:59;9.20;99.90
3940;DHT22;1984;48.312;9.244;2023-04-01T14:03:28;9.00;99.90
3940;DHT22;1984;48.312;9.244;2023-04-01T14:14:03;8.80;99.90
3940;DHT22;1984;48.312;9.244;2023-04-01T14:22:48;8.80;99.90
3940;DHT22;1984;48.312;9.244;2023-04-01T14:42:11;8.90;99.90
3940;DHT22;1984;48.312;9.244;2023-04-01T14:47:43;9.00;99.90
3940;DHT22;1984;48.312;9.244;2023-04-01T14:50:24;9.10;99.90
3940;DHT22;1984;48.312;9.244;2023-04-01T14:53:11;9.20;99.90
3940;DHT22;1984;48.312;9.244;2023-04-01T14:58:18;9.20;99.90
3940;DHT22;1984;48.312;9.244;2023-04-01T15:00:54;9.30;99.90
3940;DHT22;1984;48.312;9.244;2023-04-01T15:03:48;9.20;99.90
3940;DHT22;1984;48.312;9.244;2023-04-01T15:09:37;9.20;99.90
3940;DHT22;1984;48.312;9.244;2023-04-01T15:23:01;9.00;99.90
3940;DHT22;1984;48.312;9.244;2023-04-01T15:28:28;9.10;99.90
3940;DHT22;1984;48.312;9.244;2023-04-01T15:34:18;9.00;99.90
3940;DHT22;1984;48.312;9.244;2023-04-01T15:36:56;8.80;99.90
3940;DHT22;1984;48.312;9.244;2023-04-01T15:46:24;8.70;99.90
3940;DHT22;1984;48.312;9.244;2023-04-01T15:48:45;8.80;99.90
3940;DHT22;1984;48.312;9.244;2023-04-01T15:51:22;8.80;99.90
3940;DHT22;1984;48.312;9.244;2023-04-01T15:54:09;8.70;99.90
3940;DHT22;1984;48.312;9.244;2023-04-01T15:56:56;8.70;99.90
3940;DHT22;1984;48.312;9.244;2023-04-01T16:08:02;8.80;99.90
3940;DHT22;1984;48.312;9.244;2023-04-01T16:10:59;8.80;99.90
3940;DHT22;1984;48.312;9.244;2023-04-01T16:16:39;8.80;99.90
3940;DHT22;1984;48.312;9.244;2023-04-01T16:22:03;8.70;99.90
3940;DHT22;1984;48.312;9.244;2023-04-01T16:24:39;8.70;99.90
3940;DHT22;1984;48.312;9.244;2023-04-01T16:27:13;8.70;99.90
3940;DHT22;1984;48.312;9.244;2023-04-01T16:30:03;8.70;99.90
3940;DHT22;1984;48.312;9.244;2023-04-01T16:37:59;8.60;99.90
3940;DHT22;1984;48.312;9.244;2023-04-01T16:40:41;8.70;99.90
3940;DHT22;1984;48.312;9.244;2023-04-01T16:54:27;8.90;99.90
3940;DHT22;1984;48.312;9.244;2023-04-01T16:59:45;8.80;99.90
3940;DHT22;1984;48.312;9.244;2023-04-01T17:02:14;8.90;99.90
3940;DHT22;1984;48.312;9.244;2023-04-01T17:05:11;8.80;99.90
3940;DHT22;1984;48.312;9.244;2023-04-01T17:07:49;8.70;99.90
3940;DHT22;1984;48.312;9.244;2023-04-01T17:11:07;8.70;99.90
3940;DHT22;1984;48.312;9.244;2023-04-01T17:14:46;8.60;99.90
3940;DHT22;1984;48.312;9.244;2023-04-01T17:17:08;8.60;99.90
3940;DHT22;1984;48.312;9.244;2023-04-01T17:19:49;8.60;99.90
3940;DHT22;1984;48.312;9.244;2023-04-01T17:25:12;8.60;99.90
3940;DHT22;1984;48.312;9.244;2023-04-01T17:40:06;8.40;99.90
3940;DHT22;1984;48.312;9.244;2023-04-01T17:45:23;8.30;99.90
3940;DHT22;1984;48.312;9.244;2023-04-01T17:51:29;8.30;99.90
3940;DHT22;1984;48.312;9.244;2023-04-01T17:59:48;8.10;99.90
3940;DHT22;1984;48.312;9.244;2023-04-01T18:13:45;8.00;99.90
3940;DHT22;1984;48.312;9.244;2023-04-01T18:16:26;8.00;99.90
3940;DHT22;1984;48.312;9.244;2023-04-01T18:22:01;7.90;99.90
3940;DHT22;1984;48.312;9.244;2023-04-01T18:24:46;7.90;99.90
3940;DHT22;1984;48.312;9.244;2023-04-01T18:27:21;7.90;99.90
3940;DHT22;1984;48.312;9.244;2023-04-01T18:29:54;7.90;99.90
3940;DHT22;1984;48.312;9.244;2023-04-01T18:32:38;7.90;99.90
3940;DHT22;1984;48.312;9.244;2023-04-01T18:40:38;7.80;99.90
3940;DHT22;1984;48.312;9.244;2023-04-01T18:43:22;7.80;99.90
3940;DHT22;1984;48.312;9.244;2023-04-01T18:46:01;7.80;99.90
3940;DHT22;1984;48.312;9.244;2023-04-01T18:48:37;7.80;99.90
3940;DHT22;1984;48.312;9.244;2023-04-01T18:53:59;7.70;99.90
3940;DHT22;1984;48.312;9.244;2023-04-01T18:56:30;7.70;99.90
3940;DHT22;1984;48.312;9.244;2023-04-01T19:04:47;7.60;99.90
3940;DHT22;1984;48.312;9.244;2023-04-01T19:09:50;7.60;99.90
3940;DHT22;1984;48.312;9.244;2023-04-01T19:13:02;7.60;99.90
3940;DHT22;1984;48.312;9.244;2023-04-01T19:15:27;7.50;99.90
3940;DHT22;1984;48.312;9.244;2023-04-01T19:21:14;7.50;99.90
3940;DHT22;1984;48.312;9.244;2023-04-01T19:26:39;7.40;99.90
3940;DHT22;1984;48.312;9.244;2023-04-01T19:32:13;7.40;99.90
3940;DHT22;1984;48.312;9.244;2023-04-01T19:38:19;7.40;99.90
3940;DHT22;1984;48.312;9.244;2023-04-01T19:49:09;7.50;99.90
3940;DHT22;1984;48.312;9.244;2023-04-01T19:54:38;7.50;99.90
3940;DHT22;1984;48.312;9.244;2023-04-01T19:57:17;7.50;99.90
3940;DHT22;1984;48.312;9.244;2023-04-01T20:07:54;7.40;99.90
3940;DHT22;1984;48.312;9.244;2023-04-01T20:10:32;7.30;99.90
3940;DHT22;1984;48.312;9.244;2023-04-01T20:13:21;7.30;99.90
3940;DHT22;1984;48.312;9.244;2023-04-01T20:16:07;7.30;99.90
3940;DHT22;1984;48.312;9.244;2023-04-01T20:18:52;7.30;99.90
3940;DHT22;1984;48.312;9.244;2023-04-01T20:21:42;7.30;99.90
3940;DHT22;1984;48.312;9.244;2023-04-01T20:24:17;7.20;99.90
3940;DHT22;1984;48.312;9.244;2023-04-01T20:26:51;7.30;99.90
3940;DHT22;1984;48.312;9.244;2023-04-01T20:35:43;7.10;99.90
3940;DHT22;1984;48.312;9.244;2023-04-01T20:41:42;7.00;99.90
3940;DHT22;1984;48.312;9.244;2023-04-01T20:44:43;6.90;99.90
3940;DHT22;1984;48.312;9.244;2023-04-01T20:47:53;6.90;99.90
3940;DHT22;1984;48.312;9.244;2023-04-01T20:50:36;6.80;99.90
3940;DHT22;1984;48.312;9.244;2023-04-01T20:56:21;6.80;99.90
3940;DHT22;1984;48.312;9.244;2023-04-01T21:01:42;6.70;99.90
3940;DHT22;1984;48.312;9.244;2023-04-01T21:04:30;6.70;99.90
3940;DHT22;1984;48.312;9.244;2023-04-01T21:10:29;6.60;99.90
3940;DHT22;1984;48.312;9.244;2023-04-01T21:38:23;6.00;99.90
3940;DHT22;1984;48.312;9.244;2023-04-01T21:47:17;6.10;99.90
3940;DHT22;1984;48.312;9.244;2023-04-01T21:50:35;6.10;99.90
3940;DHT22;1984;48.312;9.244;2023-04-01T21:55:59;6.20;99.90
3940;DHT22;1984;48.312;9.244;2023-04-01T22:04:43;6.20;99.90
3940;DHT22;1984;48.312;9.244;2023-04-01T22:07:17;6.20;99.90
3940;DHT22;1984;48.312;9.244;2023-04-01T22:12:40;6.30;99.90
3940;DHT22;1984;48.312;9.244;2023-04-01T22:15:19;6.30;99.90
3940;DHT22;1984;48.312;9.244;2023-04-01T22:23:19;6.30;99.90
3940;DHT22;1984;48.312;9.244;2023-04-01T22:28:52;6.20;99.90
3940;DHT22;1984;48.312;9.244;2023-04-01T22:31:26;6.20;99.90
3940;DHT22;1984;48.312;9.244;2023-04-01T22:34:01;6.20;99.90
3940;DHT22;1984;48.312;9.244;2023-04-01T22:42:25;6.30;99.90
3940;DHT22;1984;48.312;9.244;2023-04-01T22:45:02;6.30;99.90
3940;DHT22;1984;48.312;9.244;2023-04-01T22:47:40;6.30;99.90
3940;DHT22;1984;48.312;9.244;2023-04-01T22:50:22;6.30;99.90
3940;DHT22;1984;48.312;9.244;2023-04-01T22:55:38;6.30;99.90
3940;DHT22;1984;48.312;9.244;2023-04-01T22:58:08;6.20;99.90
3940;DHT22;1984;48.312;9.244;2023-04-01T23:01:12;6.20;99.90
3940;DHT22;1984;48.312;9.244;2023-04-01T23:03:41;6.10;99.90
3940;DHT22;1984;48.312;9.244;2023-04-01T23:06:17;6.10;99.90
3940;DHT22;1984;48.312;9.244;2023-04-01T23:09:23;6.10;99.90
3940;DHT22;1984;48.312;9.244;2023-04-01T23:14:43;6.10;99.90
3940;DHT22;1984;48.312;9.244;2023-04-01T23:17:32;6.00;99.90
3940;DHT22;1984;48.312;9.244;2023-04-01T23:25:47;5.80;99.90
3940;DHT22;1984;48.312;9.244;2023-04-01T23:28:32;5.80;99.90
3940;DHT22;1984;48.312;9.244;2023-04-01T23:31:01;5.90;99.90
3940;DHT22;1984;48.312;9.244;2023-04-01T23:33:31;5.90;99.90
3940;DHT22;1984;48.312;9.244;2023-04-01T23:36:00;5.90;99.90
3940;DHT22;1984;48.312;9.244;2023-04-01T23:38:35;5.80;99.90
3940;DHT22;1984;48.312;9.244;2023-04-01T23:41:02;5.90;99.90
3940;DHT22;1984;48.312;9.244;2023-04-01T23:43:31;5.90;99.90
3940;DHT22;1984;48.312;9.244;2023-04-01T23:46:00;5.90;99.90
3940;DHT22;1984;48.312;9.244;2023-04-01T23:48:45;5.90;99.90
3940;DHT22;1984;48.312;9.244;2023-04-01T23:51:29;5.90;99.90
3940;DHT22;1984;48.312;9.244;2023-04-01T23:54:09;5.90;99.90
3940;DHT22;1984;48.312;9.244;2023-04-01T23:56:45;5.90;99.90
3940;DHT22;1984;48.312;9.244;2023-04-01T23:59:17;5.80;99.90
